KENV

Wendover Airport

Wendover, Utah, USA
KENV 260520Z 2606/2706 VRB04KT P6SM SKC FM261600 11007KT P6SM SKC FM270300 VRB04KT P6SM SKC
Issued Valid From Valid To
Apr-26 @ 05:20 UTC
(41 minutes ago)
Apr-26 @ 06:00 UTC
(a few seconds ago)
Apr-27 @ 06:00 UTC
(in 24 hours)
Apr-26 @ 06:00 to Apr-26 @ 16:00
KENV 260520Z 2606/2706 VRB04KT P6SM SKC
Wind Visibility Clouds
Variable at 4 knots Greater than 6 miles
  • Clear skies
From Apr-26 @ 16:00 to Apr-27 @ 03:00
FM261600 11007KT P6SM SKC
Wind Visibility Clouds
110° at 7 knots Greater than 6 miles
  • Clear skies
From Apr-27 @ 03:00 to Apr-27 @ 06:00
FM270300 VRB04KT P6SM SKC
Wind Visibility Clouds
Variable at 4 knots Greater than 6 miles
  • Clear skies
KENV 260520Z 2606/2706 VRB04KT P6SM SKC FM261600 11007KT P6SM SKC FM270300 VRB04KT P6SM SKC
Issued Apr-26 @ 05:20 UTC
(41 minutes ago)
Valid From Apr-26 @ 06:00 UTC
(a few seconds ago)
Valid To Apr-27 @ 06:00 UTC
(in 24 hours)
Apr-26 @ 06:00 - Apr-26 @ 16:00
Wind Visibility
Variable at 4 knots Greater than 6 miles
Clouds
  • Clear skies
From Apr-26 @ 16:00 - Apr-27 @ 03:00
Wind Visibility
110° at 7 knots Greater than 6 miles
Clouds
  • Clear skies
From Apr-27 @ 03:00 - Apr-27 @ 06:00
Wind Visibility
Variable at 4 knots Greater than 6 miles
Clouds
  • Clear skies